createdAt,value
2017-10-13T00:01:06.814Z,62.05
2017-10-13T00:03:34.314Z,62.21
2017-10-13T00:06:01.799Z,61.95
2017-10-13T00:08:29.261Z,61.98
2017-10-13T00:10:56.738Z,61.73
2017-10-13T00:13:24.258Z,61.87
2017-10-13T00:15:51.723Z,62.13
2017-10-13T00:18:19.188Z,62.26
2017-10-13T00:20:46.694Z,62.16
2017-10-13T00:23:14.164Z,62.36
2017-10-13T00:25:41.686Z,62.67
2017-10-13T00:28:09.172Z,62.58
2017-10-13T00:30:36.638Z,62.69
2017-10-13T00:33:04.169Z,62.59
2017-10-13T00:35:31.674Z,62.69
2017-10-13T00:37:59.135Z,62.81
2017-10-13T00:40:26.605Z,62.53
2017-10-13T00:42:54.111Z,63.08
2017-10-13T00:45:21.579Z,63.68
2017-10-13T00:47:49.080Z,63.66
2017-10-13T00:50:16.649Z,64.21
2017-10-13T00:52:44.111Z,64.82
2017-10-13T00:55:11.571Z,65.22
2017-10-13T00:57:39.081Z,65.73
2017-10-13T01:00:06.547Z,65.25
2017-10-13T01:02:34.129Z,65.37
2017-10-13T01:05:01.648Z,65.23
2017-10-13T01:07:29.142Z,65.53
2017-10-13T01:09:56.602Z,65.20
2017-10-13T01:12:24.147Z,65.83
2017-10-13T01:14:51.645Z,66.50
2017-10-13T01:17:19.135Z,66.17
2017-10-13T01:19:46.648Z,65.61
2017-10-13T01:22:14.171Z,65.49
2017-10-13T01:24:41.652Z,65.32
2017-10-13T01:27:09.146Z,65.08
2017-10-13T01:29:36.643Z,64.72
2017-10-13T01:32:04.119Z,64.58
2017-10-13T01:34:31.919Z,64.04
2017-10-13T01:36:59.402Z,64.13
2017-10-13T01:39:26.918Z,63.54
2017-10-13T01:41:54.419Z,63.81
2017-10-13T01:44:21.888Z,63.79
2017-10-13T01:46:49.368Z,63.51
2017-10-13T01:49:16.873Z,62.76
2017-10-13T01:51:44.354Z,62.45
2017-10-13T01:54:11.855Z,62.76
2017-10-13T01:56:39.359Z,63.03
2017-10-13T01:59:06.835Z,63.00
2017-10-13T02:01:34.297Z,62.78
2017-10-13T02:04:01.781Z,63.03
2017-10-13T02:06:29.410Z,63.65
2017-10-13T02:08:56.910Z,63.77
2017-10-13T02:11:24.388Z,64.18
2017-10-13T02:13:51.859Z,64.73
2017-10-13T02:16:19.351Z,64.17
2017-10-13T02:18:46.974Z,64.07
2017-10-13T02:21:14.468Z,64.49
2017-10-13T02:23:41.975Z,64.58
2017-10-13T02:26:09.484Z,64.92
2017-10-13T02:28:37.017Z,65.56
2017-10-13T02:31:04.515Z,65.34
2017-10-13T02:33:32.017Z,65.58
2017-10-13T02:35:59.482Z,65.63
2017-10-13T02:38:26.959Z,66.31
2017-10-13T02:40:54.435Z,66.44
2017-10-13T02:43:21.908Z,66.16
2017-10-13T02:45:49.384Z,66.36
2017-10-13T02:48:16.864Z,66.56
2017-10-13T02:50:44.350Z,66.60
2017-10-13T02:53:11.829Z,66.78
2017-10-13T02:55:39.334Z,66.43
2017-10-13T02:58:06.817Z,66.40
2017-10-13T03:00:34.473Z,66.25
2017-10-13T03:03:01.980Z,66.35
2017-10-13T03:05:29.437Z,66.25
2017-10-13T03:07:56.911Z,66.30
2017-10-13T03:10:24.422Z,66.37
2017-10-13T03:12:51.887Z,66.14
2017-10-13T03:15:19.391Z,65.78
2017-10-13T03:17:46.890Z,65.62
2017-10-13T03:20:14.424Z,65.27
2017-10-13T03:22:41.884Z,65.50
2017-10-13T03:25:09.412Z,65.42
2017-10-13T03:27:36.894Z,65.24
2017-10-13T03:30:04.384Z,65.11
2017-10-13T03:32:31.880Z,65.64
2017-10-13T03:34:59.352Z,65.86
2017-10-13T03:37:26.835Z,66.10
2017-10-13T03:39:54.371Z,66.19
2017-10-13T03:42:21.841Z,66.99
2017-10-13T03:44:49.366Z,67.82
2017-10-13T03:47:16.838Z,68.02
2017-10-13T03:49:44.406Z,68.64
2017-10-13T03:52:11.904Z,68.88
2017-10-13T03:54:39.389Z,69.29
2017-10-13T03:57:06.870Z,69.55
2017-10-13T03:59:34.339Z,69.97
2017-10-13T04:02:01.819Z,70.35
2017-10-13T04:04:29.300Z,70.87
2017-10-13T04:06:56.770Z,70.89
2017-10-13T04:09:24.278Z,71.16
2017-10-13T04:11:51.758Z,71.34
2017-10-13T04:14:19.257Z,71.41
2017-10-13T04:16:46.818Z,71.22
2017-10-13T04:19:14.281Z,71.32
2017-10-13T04:21:41.782Z,71.04
2017-10-13T04:24:09.297Z,71.39
2017-10-13T04:26:36.784Z,71.54
2017-10-13T04:29:04.229Z,71.40
2017-10-13T04:31:31.742Z,71.08
2017-10-13T04:33:59.255Z,71.13
2017-10-13T04:36:26.795Z,71.20
2017-10-13T04:38:54.868Z,71.36
2017-10-13T04:41:22.339Z,71.18
2017-10-13T04:43:49.832Z,71.30
2017-10-13T04:46:17.329Z,71.06
2017-10-13T04:48:44.941Z,71.37
2017-10-13T04:51:12.523Z,71.33
2017-10-13T04:53:40.018Z,71.53
2017-10-13T04:56:07.488Z,71.62
2017-10-13T04:58:34.955Z,71.97
2017-10-13T05:01:02.448Z,72.11
2017-10-13T05:03:29.951Z,71.81
2017-10-13T05:05:57.445Z,72.37
2017-10-13T05:08:24.967Z,72.90
2017-10-13T05:10:52.459Z,72.97
2017-10-13T05:13:19.941Z,72.99
2017-10-13T05:15:47.428Z,72.85
2017-10-13T05:18:14.894Z,72.33
2017-10-13T05:20:42.382Z,72.36
2017-10-13T05:23:09.867Z,72.10
2017-10-13T05:25:37.347Z,72.72
2017-10-13T05:28:04.835Z,72.79
2017-10-13T05:30:32.361Z,72.64
2017-10-13T05:32:59.841Z,72.23
2017-10-13T05:35:27.302Z,72.54
2017-10-13T05:37:54.790Z,71.93
2017-10-13T05:40:22.248Z,71.53
2017-10-13T05:42:49.727Z,71.00
2017-10-13T05:45:17.301Z,70.81
2017-10-13T05:47:44.791Z,70.71
2017-10-13T05:50:12.276Z,70.12
2017-10-13T05:52:39.773Z,69.84
2017-10-13T05:55:07.261Z,69.18
2017-10-13T05:57:34.745Z,68.94
2017-10-13T06:00:02.229Z,68.75
2017-10-13T06:02:29.701Z,68.25
2017-10-13T06:04:57.240Z,67.71
2017-10-13T06:07:24.726Z,67.13
2017-10-13T06:09:52.238Z,66.60
2017-10-13T06:12:19.738Z,65.86
2017-10-13T06:14:47.261Z,65.28
2017-10-13T06:17:14.762Z,64.90
2017-10-13T06:19:42.237Z,64.44
2017-10-13T06:22:09.729Z,63.86
2017-10-13T06:24:37.244Z,63.25
2017-10-13T06:27:04.752Z,62.68
2017-10-13T06:29:32.231Z,62.13
2017-10-13T06:31:59.698Z,62.32
2017-10-13T06:34:27.155Z,61.70
2017-10-13T06:36:54.738Z,61.31
2017-10-13T06:39:22.209Z,60.62
2017-10-13T06:41:49.691Z,60.80
2017-10-13T06:44:17.314Z,60.42
2017-10-13T06:46:44.901Z,60.37
2017-10-13T06:49:12.364Z,60.04
2017-10-13T06:51:39.864Z,59.92
2017-10-13T06:54:07.351Z,59.81
2017-10-13T06:56:34.814Z,59.38
2017-10-13T06:59:02.288Z,58.82
2017-10-13T07:01:29.736Z,58.42
2017-10-13T07:03:57.211Z,58.25
2017-10-13T07:06:24.717Z,58.27
2017-10-13T07:08:52.201Z,57.84
2017-10-13T07:11:19.686Z,57.49
2017-10-13T07:13:47.205Z,57.30
2017-10-13T07:16:14.722Z,57.27
2017-10-13T07:18:42.291Z,57.93
2017-10-13T07:21:09.828Z,57.77
2017-10-13T07:23:37.296Z,57.91
2017-10-13T07:26:04.764Z,57.90
2017-10-13T07:28:32.372Z,58.13
2017-10-13T07:30:59.850Z,57.90
2017-10-13T07:33:27.297Z,57.48
2017-10-13T07:35:54.769Z,57.42
2017-10-13T07:38:22.233Z,57.82
2017-10-13T07:40:49.708Z,57.77
2017-10-13T07:43:17.233Z,58.56
2017-10-13T07:45:44.706Z,58.54
2017-10-13T07:48:12.174Z,58.78
2017-10-13T07:50:40.420Z,59.03
2017-10-13T07:53:07.897Z,59.48
2017-10-13T07:55:35.387Z,58.94
2017-10-13T07:58:02.897Z,58.32
2017-10-13T08:00:30.552Z,58.80
2017-10-13T08:02:58.016Z,57.38
2017-10-13T08:05:25.549Z,57.64
2017-10-13T08:07:53.020Z,56.81
2017-10-13T08:10:20.485Z,57.36
2017-10-13T08:12:47.983Z,57.91
2017-10-13T08:15:15.452Z,58.45
2017-10-13T08:17:42.910Z,56.99
2017-10-13T08:20:11.135Z,56.22
2017-10-13T08:22:38.637Z,56.74
2017-10-13T08:25:06.172Z,57.15
2017-10-13T08:27:33.652Z,56.95
2017-10-13T08:30:01.164Z,56.23
2017-10-13T08:32:28.661Z,55.48
2017-10-13T08:34:56.173Z,55.85
2017-10-13T08:37:23.669Z,55.48
2017-10-13T08:39:51.136Z,55.18
2017-10-13T08:42:18.634Z,55.54
2017-10-13T08:44:46.093Z,55.58
2017-10-13T08:47:13.551Z,55.67
2017-10-13T08:49:41.046Z,56.17
2017-10-13T08:52:08.518Z,56.87
2017-10-13T08:54:36.044Z,57.16
2017-10-13T08:57:03.561Z,56.56
2017-10-13T08:59:31.057Z,57.45
2017-10-13T09:01:58.542Z,57.77
2017-10-13T09:04:26.058Z,57.15
2017-10-13T09:06:53.546Z,56.75
2017-10-13T09:09:21.067Z,56.61
2017-10-13T09:11:48.600Z,56.23
2017-10-13T09:14:16.085Z,55.95
2017-10-13T09:16:43.550Z,54.66
2017-10-13T09:19:11.113Z,54.55
2017-10-13T09:21:38.623Z,55.10
2017-10-13T09:24:06.105Z,55.65
2017-10-13T09:26:33.593Z,55.54
2017-10-13T09:29:01.068Z,55.55
2017-10-13T09:31:28.619Z,54.51
2017-10-13T09:33:56.119Z,54.76
2017-10-13T09:36:23.581Z,53.73
2017-10-13T09:38:51.072Z,53.51
2017-10-13T09:41:18.559Z,53.71
2017-10-13T09:43:46.056Z,53.45
2017-10-13T09:46:13.529Z,53.86
2017-10-13T09:48:41.175Z,53.54
2017-10-13T09:51:08.659Z,52.54
2017-10-13T09:53:36.130Z,51.17
2017-10-13T09:56:03.620Z,51.27
2017-10-13T09:58:31.085Z,50.88
2017-10-13T10:00:58.597Z,50.23
2017-10-13T10:03:26.143Z,50.48
2017-10-13T10:05:53.604Z,49.77
2017-10-13T10:08:21.069Z,50.01
2017-10-13T10:10:48.574Z,50.21
2017-10-13T10:13:16.059Z,48.79
2017-10-13T10:15:43.534Z,47.72
2017-10-13T10:18:11.453Z,47.71
2017-10-13T10:20:38.907Z,47.97
2017-10-13T10:23:06.454Z,47.78
2017-10-13T10:25:33.960Z,47.37
2017-10-13T10:28:01.623Z,46.21
2017-10-13T10:30:29.085Z,46.49
2017-10-13T10:32:56.619Z,47.90
2017-10-13T10:35:24.094Z,47.99
2017-10-13T10:37:51.561Z,47.70
2017-10-13T10:40:19.055Z,47.98
2017-10-13T10:42:46.549Z,48.26
2017-10-13T10:45:14.049Z,48.11
2017-10-13T10:47:41.579Z,49.04
2017-10-13T10:50:09.080Z,49.79
2017-10-13T10:52:36.569Z,49.97
2017-10-13T10:55:04.039Z,49.23
2017-10-13T10:57:31.494Z,49.10
2017-10-13T10:59:58.962Z,47.89
2017-10-13T11:02:26.443Z,47.85
2017-10-13T11:04:53.912Z,47.75
2017-10-13T11:07:21.389Z,47.62
2017-10-13T11:09:48.874Z,47.89
2017-10-13T11:12:16.336Z,48.23
2017-10-13T11:14:43.792Z,49.27
2017-10-13T11:17:11.267Z,48.89
2017-10-13T11:19:39.188Z,46.84
2017-10-13T11:22:07.784Z,46.82
2017-10-13T11:24:35.262Z,45.95
2017-10-13T11:27:02.748Z,44.64
2017-10-13T11:29:30.225Z,44.04
2017-10-13T11:31:57.717Z,43.44
2017-10-13T11:34:25.190Z,43.84
2017-10-13T11:36:52.704Z,43.37
2017-10-13T11:39:20.184Z,43.16
2017-10-13T11:41:48.007Z,43.10
2017-10-13T11:44:15.546Z,42.98
2017-10-13T11:46:43.068Z,43.43
2017-10-13T11:49:10.546Z,43.33
2017-10-13T11:51:37.998Z,43.26
2017-10-13T11:54:05.538Z,43.25
2017-10-13T11:56:33.022Z,43.21
2017-10-13T11:59:00.594Z,43.29
2017-10-13T12:01:28.080Z,43.38
2017-10-13T12:03:55.572Z,43.09
2017-10-13T12:06:23.048Z,43.02
2017-10-13T12:08:50.533Z,43.01
2017-10-13T12:11:18.025Z,43.07
2017-10-13T12:13:46.429Z,42.93
2017-10-13T12:16:14.067Z,43.36
2017-10-13T12:18:41.599Z,43.84
2017-10-13T12:21:09.073Z,43.70
2017-10-13T12:23:36.629Z,43.72
2017-10-13T12:26:04.124Z,43.24
2017-10-13T12:28:31.580Z,43.03
2017-10-13T12:30:59.106Z,42.89
2017-10-13T12:33:26.600Z,42.94
2017-10-13T12:35:54.461Z,43.80
2017-10-13T12:38:21.944Z,43.68
2017-10-13T12:40:49.449Z,43.46
2017-10-13T12:43:16.937Z,43.40
2017-10-13T12:45:44.437Z,43.67
2017-10-13T12:48:11.983Z,42.88
2017-10-13T12:50:39.453Z,43.66
2017-10-13T12:53:07.015Z,43.43
2017-10-13T12:55:34.506Z,43.24
2017-10-13T12:58:01.969Z,42.49
2017-10-13T13:00:29.472Z,42.82
2017-10-13T13:02:56.944Z,42.08
2017-10-13T13:05:24.440Z,42.85
2017-10-13T13:07:52.288Z,43.31
2017-10-13T13:10:19.778Z,43.74
2017-10-13T13:12:47.342Z,44.09
2017-10-13T13:15:14.880Z,44.83
2017-10-13T13:17:42.375Z,45.46
2017-10-13T13:20:09.938Z,45.27
2017-10-13T13:22:37.433Z,44.67
2017-10-13T13:25:04.963Z,44.85
2017-10-13T13:27:32.638Z,44.89
2017-10-13T13:30:00.176Z,44.58
2017-10-13T13:32:27.663Z,43.31
2017-10-13T13:34:55.215Z,43.04
2017-10-13T13:37:22.714Z,43.68
2017-10-13T13:39:50.287Z,42.88
2017-10-13T13:42:17.797Z,42.62
2017-10-13T13:44:45.342Z,42.56
2017-10-13T13:47:12.798Z,43.17
2017-10-13T13:49:40.279Z,42.64
2017-10-13T13:52:07.769Z,42.50
2017-10-13T13:54:35.248Z,41.90
2017-10-13T13:57:02.790Z,41.10
2017-10-13T13:59:30.285Z,40.31
2017-10-13T14:01:57.776Z,41.08
2017-10-13T14:04:25.408Z,40.49
2017-10-13T14:06:52.927Z,40.39
2017-10-13T14:09:20.419Z,39.57
2017-10-13T14:11:47.941Z,39.16
2017-10-13T14:14:15.484Z,40.41
2017-10-13T14:16:42.955Z,42.12
2017-10-13T14:19:10.449Z,42.89
2017-10-13T14:21:37.953Z,43.43
2017-10-13T14:24:05.426Z,44.84
2017-10-13T14:26:32.919Z,45.53
2017-10-13T14:29:00.443Z,45.93
2017-10-13T14:31:27.937Z,46.88
2017-10-13T14:33:55.617Z,45.76
2017-10-13T14:36:23.146Z,44.42
2017-10-13T14:38:50.637Z,44.59
2017-10-13T14:41:18.117Z,45.38
2017-10-13T14:43:45.613Z,43.27
2017-10-13T14:46:13.115Z,41.61
2017-10-13T14:48:40.657Z,41.26
2017-10-13T14:51:08.239Z,39.49
2017-10-13T14:53:35.723Z,38.19
2017-10-13T14:56:03.204Z,37.66
2017-10-13T14:58:30.960Z,38.17
2017-10-13T15:00:58.462Z,37.98
2017-10-13T15:03:25.950Z,38.38
2017-10-13T15:05:53.448Z,38.55
2017-10-13T15:08:20.958Z,37.79
2017-10-13T15:10:48.441Z,38.54
2017-10-13T15:13:15.926Z,38.21
2017-10-13T15:15:43.486Z,39.14
2017-10-13T15:18:11.015Z,38.89
2017-10-13T15:20:38.582Z,39.35
2017-10-13T15:23:06.039Z,39.34
2017-10-13T15:25:39.205Z,39.90
2017-10-13T15:28:12.217Z,38.81
2017-10-13T15:30:45.286Z,38.86
2017-10-13T15:33:18.398Z,39.63
2017-10-13T15:35:51.349Z,41.08
2017-10-13T15:38:24.359Z,41.17
2017-10-13T15:40:57.449Z,42.31
2017-10-13T15:43:30.450Z,43.77
2017-10-13T15:46:03.470Z,45.40
2017-10-13T15:48:30.926Z,46.12
2017-10-13T15:51:03.886Z,46.76
2017-10-13T15:53:31.351Z,48.00
2017-10-13T15:55:58.845Z,49.20
2017-10-13T15:58:26.342Z,49.95
2017-10-13T16:00:53.813Z,50.54
2017-10-13T16:03:21.312Z,50.74
2017-10-13T16:05:48.984Z,50.95
2017-10-13T16:08:16.520Z,51.55
2017-10-13T16:10:44.034Z,51.79
2017-10-13T16:13:11.528Z,52.64
2017-10-13T16:15:38.995Z,53.04
2017-10-13T16:18:06.513Z,53.72
2017-10-13T16:20:33.999Z,53.58
2017-10-13T16:23:01.471Z,53.85
2017-10-13T16:25:29.728Z,54.25
2017-10-13T16:27:57.238Z,54.31
2017-10-13T16:30:24.884Z,54.29
2017-10-13T16:32:52.425Z,54.33
2017-10-13T16:35:19.941Z,54.81
2017-10-13T16:37:47.482Z,54.84
2017-10-13T16:42:49.771Z,54.77
2017-10-13T16:45:17.371Z,54.97
2017-10-13T16:47:44.942Z,55.20
2017-10-13T16:50:12.502Z,54.89
2017-10-13T16:52:39.997Z,54.95
2017-10-13T16:55:07.500Z,55.23
2017-10-13T16:57:35.005Z,55.37
2017-10-13T17:00:02.542Z,55.58
2017-10-13T17:02:30.074Z,55.80
2017-10-13T17:04:57.659Z,56.01
2017-10-13T17:07:25.133Z,55.90
2017-10-13T17:09:52.610Z,55.97
2017-10-13T17:12:20.129Z,56.04
2017-10-13T17:14:47.602Z,56.11
2017-10-13T17:17:15.073Z,56.05
2017-10-13T17:19:42.603Z,56.18
2017-10-13T17:22:10.093Z,56.11
2017-10-13T17:24:37.629Z,56.33
2017-10-13T17:27:05.152Z,56.41
2017-10-13T17:29:32.622Z,56.47
2017-10-13T17:32:00.147Z,56.63
2017-10-13T17:34:27.678Z,56.74
2017-10-13T17:36:55.234Z,56.92
2017-10-13T17:39:22.774Z,57.04
2017-10-13T17:41:50.269Z,56.83
2017-10-13T17:44:17.750Z,56.98
2017-10-13T17:46:45.263Z,57.05
2017-10-13T17:49:12.817Z,57.30
2017-10-13T17:51:40.301Z,57.20
2017-10-13T17:54:07.810Z,57.32
2017-10-13T17:56:35.483Z,57.68
2017-10-13T17:59:02.980Z,58.04
2017-10-13T18:01:30.525Z,58.29
2017-10-13T18:03:58.033Z,58.15
2017-10-13T18:06:25.566Z,58.25
2017-10-13T18:08:53.091Z,58.39
2017-10-13T18:11:20.680Z,58.59
2017-10-13T18:13:48.168Z,58.81
2017-10-13T18:16:15.687Z,59.46
2017-10-13T18:18:43.225Z,59.94
2017-10-13T18:21:10.730Z,60.07
2017-10-13T18:23:38.212Z,59.91
2017-10-13T18:26:05.747Z,59.86
2017-10-13T18:28:33.218Z,59.87
2017-10-13T18:31:00.712Z,60.11
2017-10-13T18:33:28.237Z,60.21
2017-10-13T18:35:55.745Z,60.96
2017-10-13T18:38:23.276Z,61.59
2017-10-13T18:40:50.801Z,61.86
2017-10-13T18:43:18.356Z,61.90
2017-10-13T18:45:45.830Z,61.88
2017-10-13T18:48:13.414Z,61.62
2017-10-13T18:50:41.016Z,61.86
2017-10-13T18:53:08.492Z,61.96
2017-10-13T18:55:36.022Z,61.89
2017-10-13T18:58:03.521Z,61.51
2017-10-13T19:00:31.019Z,61.48
2017-10-13T19:02:58.529Z,61.40
2017-10-13T19:05:26.061Z,61.19
2017-10-13T19:07:53.651Z,60.75
2017-10-13T19:10:21.209Z,60.41
2017-10-13T19:12:48.695Z,60.18
2017-10-13T19:15:16.278Z,60.44
2017-10-13T19:17:43.790Z,60.09
2017-10-13T19:20:11.314Z,60.37
2017-10-13T19:22:38.826Z,60.72
2017-10-13T19:25:06.390Z,60.09
2017-10-13T19:27:33.930Z,60.31
2017-10-13T19:30:01.404Z,59.92
2017-10-13T19:32:28.964Z,59.21
2017-10-13T19:34:56.428Z,59.65
2017-10-13T19:37:23.916Z,59.78
2017-10-13T19:39:51.454Z,59.87
2017-10-13T19:42:18.967Z,59.59
2017-10-13T19:44:46.535Z,59.40
2017-10-13T19:47:14.141Z,59.70
2017-10-13T19:49:41.615Z,59.42
2017-10-13T19:52:09.130Z,59.61
2017-10-13T19:54:36.703Z,59.34
2017-10-13T19:57:04.187Z,59.50
2017-10-13T19:59:31.688Z,59.01
2017-10-13T20:01:59.185Z,59.24
2017-10-13T20:04:26.676Z,59.05
2017-10-13T20:06:54.150Z,59.20
2017-10-13T20:09:21.615Z,59.04
2017-10-13T20:11:49.103Z,59.31
2017-10-13T20:14:16.686Z,59.25
2017-10-13T20:16:44.195Z,59.46
2017-10-13T20:19:11.709Z,59.38
2017-10-13T20:21:39.278Z,59.22
2017-10-13T20:24:06.799Z,59.36
2017-10-13T20:26:34.352Z,59.45
2017-10-13T20:29:01.863Z,59.76
2017-10-13T20:31:29.374Z,59.42
2017-10-13T20:33:56.838Z,59.58
2017-10-13T20:36:24.384Z,59.57
2017-10-13T20:38:51.853Z,59.90
2017-10-13T20:41:19.374Z,59.55
2017-10-13T20:43:46.856Z,59.82
2017-10-13T20:46:14.384Z,60.39
2017-10-13T20:48:42.642Z,60.28
2017-10-13T20:51:10.119Z,60.16
2017-10-13T20:53:37.613Z,60.17
2017-10-13T20:56:05.080Z,59.94
2017-10-13T20:58:32.541Z,60.14
2017-10-13T21:01:00.058Z,60.50
2017-10-13T21:03:27.527Z,61.43
2017-10-13T21:05:55.024Z,61.50
2017-10-13T21:08:22.541Z,61.48
2017-10-13T21:10:50.074Z,60.80
2017-10-13T21:13:17.645Z,61.04
2017-10-13T21:15:45.226Z,61.46
2017-10-13T21:18:12.690Z,61.93
2017-10-13T21:20:40.225Z,61.90
2017-10-13T21:23:08.011Z,61.49
2017-10-13T21:25:35.541Z,61.73
2017-10-13T21:28:03.266Z,61.87
2017-10-13T21:30:30.781Z,61.83
2017-10-13T21:32:58.642Z,61.86
2017-10-13T21:35:26.190Z,61.82
2017-10-13T21:37:53.688Z,62.07
2017-10-13T21:40:21.154Z,61.94
2017-10-13T21:42:48.624Z,61.98
2017-10-13T21:45:16.152Z,62.10
2017-10-13T21:47:43.617Z,62.40
2017-10-13T21:50:11.130Z,62.28
2017-10-13T21:52:38.649Z,62.43
2017-10-13T21:55:06.214Z,62.93
2017-10-13T21:57:33.680Z,63.15
2017-10-13T22:00:01.181Z,63.53
2017-10-13T22:02:28.990Z,64.30
2017-10-13T22:05:02.046Z,64.45
2017-10-13T22:07:29.569Z,64.27
2017-10-13T22:09:57.071Z,64.54
2017-10-13T22:12:24.670Z,65.18
2017-10-13T22:14:52.162Z,64.95
2017-10-13T22:17:19.638Z,65.05
2017-10-13T22:19:47.178Z,65.20
2017-10-13T22:22:14.678Z,65.21
2017-10-13T22:24:42.162Z,65.08
2017-10-13T22:27:09.654Z,65.15
2017-10-13T22:29:37.132Z,65.10
2017-10-13T22:32:04.641Z,65.39
2017-10-13T22:34:32.134Z,65.37
2017-10-13T22:36:59.649Z,65.73
2017-10-13T22:39:27.149Z,65.97
2017-10-13T22:41:54.672Z,65.65
2017-10-13T22:44:22.133Z,66.00
2017-10-13T22:46:49.605Z,65.91
2017-10-13T22:49:17.104Z,66.47
2017-10-13T22:51:44.802Z,66.83
2017-10-13T22:54:12.341Z,66.24
2017-10-13T22:56:39.922Z,66.23
2017-10-13T22:59:07.413Z,66.11
2017-10-13T23:01:34.893Z,66.28
2017-10-13T23:04:02.370Z,66.71
2017-10-13T23:06:29.836Z,66.54
2017-10-13T23:08:57.315Z,66.72
2017-10-13T23:11:24.821Z,66.90
2017-10-13T23:13:52.295Z,66.60
2017-10-13T23:16:19.757Z,66.65
2017-10-13T23:18:47.241Z,66.76
2017-10-13T23:21:14.771Z,66.58
2017-10-13T23:23:42.233Z,66.73
2017-10-13T23:26:09.727Z,66.88
2017-10-13T23:28:37.187Z,66.91
2017-10-13T23:31:04.640Z,66.73
2017-10-13T23:33:32.130Z,67.29
2017-10-13T23:35:59.610Z,67.44
2017-10-13T23:38:27.068Z,68.00
2017-10-13T23:40:54.536Z,67.99
2017-10-13T23:43:22.014Z,68.20
2017-10-13T23:45:49.477Z,68.66
2017-10-13T23:48:16.953Z,68.53
2017-10-13T23:50:44.428Z,68.45
2017-10-13T23:53:11.880Z,69.01
2017-10-13T23:55:39.379Z,69.25
2017-10-13T23:58:06.853Z,69.57
